Time;durP1;ratioP1;P1;durP2;ratioP2;P2;SDS_P1;SDS_P2;PMS_P1;PMS_P2;Temp;Humidity;BMP_temperature;BMP_pressure;BME280_temperature;BME280_humidity;BME280_pressure;Samples;Min_cycle;Max_cycle;Signal;HPM_P1;HPM_P2
2022/12/05 00:01:34;;;;;;;21.98;13.63;;;5.50;92.80;;;;;;5013139;28;20037;-45
2022/12/05 00:04:05;;;;;;;26.98;12.65;;;5.40;92.90;;;;;;5013161;28;20042;-46
2022/12/05 00:06:33;;;;;;;16.83;12.38;;;5.50;92.80;;;;;;5013081;28;20327;-45
2022/12/05 00:09:03;;;;;;;19.88;11.57;;;5.50;92.80;;;;;;5014864;28;20431;-46
2022/12/05 00:11:31;;;;;;;;;;;5.40;92.80;;;;;;5021559;28;20397;-49
2022/12/05 00:13:59;;;;;;;18.13;10.55;;;5.40;92.90;;;;;;5014862;28;19919;-45
2022/12/05 00:16:28;;;;;;;20.13;10.90;;;5.40;92.80;;;;;;5033004;28;20067;-48
2022/12/05 00:19:00;;;;;;;18.70;11.02;;;5.40;92.80;;;;;;5020416;28;20105;-46
2022/12/05 00:21:30;;;;;;;18.55;10.90;;;5.40;92.90;;;;;;5021155;28;20038;-46
2022/12/05 00:23:58;;;;;;;16.98;11.50;;;5.40;92.90;;;;;;5020145;28;20048;-47
2022/12/05 00:26:26;;;;;;;18.15;10.50;;;5.40;92.90;;;;;;5036875;28;20020;-46
2022/12/05 00:28:53;;;;;;;15.25;10.50;;;5.40;92.80;;;;;;5026548;28;20045;-49
2022/12/05 00:31:23;;;;;;;20.33;10.68;;;5.40;92.90;;;;;;5016565;28;20021;-45
2022/12/05 00:33:51;;;;;;;21.63;11.40;;;5.40;92.80;;;;;;5015764;28;20080;-46
2022/12/05 00:36:24;;;;;;;16.30;9.20;;;5.40;92.80;;;;;;5016940;28;20506;-47
2022/12/05 00:38:52;;;;;;;15.23;10.05;;;5.40;92.80;;;;;;5027250;28;20021;-49
2022/12/05 00:41:24;;;;;;;14.75;10.20;;;5.40;92.80;;;;;;5056090;28;20678;-45
2022/12/05 00:43:51;;;;;;;13.00;9.75;;;5.40;92.80;;;;;;4998910;28;20030;-48
2022/12/05 00:46:24;;;;;;;18.70;11.00;;;5.40;92.80;;;;;;5016448;28;20022;-47
2022/12/05 00:48:52;;;;;;;15.38;10.13;;;5.40;92.80;;;;;;4999318;28;20416;-48
2022/12/05 00:51:25;;;;;;;16.52;9.93;;;5.40;92.90;;;;;;5016145;28;20041;-46
2022/12/05 00:53:52;;;;;;;14.13;10.32;;;5.40;92.90;;;;;;5015747;28;20333;-46
2022/12/05 00:56:22;;;;;;;13.88;10.57;;;5.40;92.90;;;;;;5015287;28;20038;-48
2022/12/05 00:58:51;;;;;;;13.77;9.43;;;5.40;92.90;;;;;;5017132;28;20031;-45
2022/12/05 01:01:32;;;;;;;17.00;9.20;;;5.40;92.90;;;;;;5018630;28;20037;-47
2022/12/05 01:04:02;;;;;;;13.32;8.93;;;5.40;93.00;;;;;;5035750;28;20068;-48
2022/12/05 01:06:29;;;;;;;13.63;8.88;;;5.40;93.00;;;;;;5036018;28;20079;-47
2022/12/05 01:08:56;;;;;;;16.58;9.60;;;5.40;93.00;;;;;;5017034;28;20054;-45
2022/12/05 01:11:23;;;;;;;14.70;9.38;;;5.40;93.10;;;;;;5016716;28;20034;-46
2022/12/05 01:13:51;;;;;;;15.40;9.02;;;5.40;93.20;;;;;;5015557;28;20060;-47
2022/12/05 01:16:42;;;;;;;13.00;9.90;;;5.40;93.30;;;;;;5016425;28;20462;-45
2022/12/05 01:19:17;;;;;;;13.95;9.80;;;5.30;93.30;;;;;;5016019;28;20030;-49
2022/12/05 01:21:44;;;;;;;15.82;8.88;;;5.40;93.40;;;;;;4998555;28;20037;-50
2022/12/05 01:24:11;;;;;;;14.98;9.80;;;5.30;93.40;;;;;;5029891;28;20396;-49
2022/12/05 01:26:39;;;;;;;14.57;9.00;;;5.30;93.50;;;;;;5030827;28;20028;-48
2022/12/05 01:29:11;;;;;;;16.33;10.63;;;5.30;93.50;;;;;;5016191;28;20045;-46
2022/12/05 01:31:38;;;;;;;13.35;9.15;;;5.30;93.60;;;;;;4998001;28;20030;-45
2022/12/05 01:34:08;;;;;;;16.30;10.82;;;5.30;93.70;;;;;;5019007;28;20042;-46
2022/12/05 01:36:35;;;;;;;;;;;5.30;93.80;;;;;;5015891;28;20026;-47
2022/12/05 01:39:02;;;;;;;13.25;9.32;;;5.30;93.80;;;;;;5014572;28;19905;-46
2022/12/05 01:41:34;;;;;;;17.08;10.45;;;5.30;93.80;;;;;;5017083;28;20058;-45
2022/12/05 01:44:09;;;;;;;15.35;11.30;;;5.20;93.90;;;;;;5022762;28;20490;-47
2022/12/05 01:47:03;;;;;;;18.08;11.45;;;5.30;94.00;;;;;;5015245;28;20071;-45
2022/12/05 01:49:35;;;;;;;19.45;11.18;;;5.30;94.00;;;;;;5012315;28;20424;-49
2022/12/05 01:52:09;;;;;;;23.48;11.73;;;5.30;94.00;;;;;;5015486;28;20498;-51
2022/12/05 01:54:37;;;;;;;21.08;10.40;;;5.30;94.10;;;;;;5015084;28;20025;-45
2022/12/05 01:57:09;;;;;;;16.85;10.35;;;5.30;94.10;;;;;;5031122;28;20052;-46
2022/12/05 01:59:43;;;;;;;19.88;10.15;;;5.30;94.10;;;;;;5034018;28;20370;-51
2022/12/05 02:02:10;;;;;;;19.60;10.18;;;5.30;94.20;;;;;;5035100;28;20538;-50
2022/12/05 02:04:56;;;;;;;13.38;9.57;;;5.20;94.20;;;;;;5034632;28;20030;-45
2022/12/05 02:07:23;;;;;;;19.02;10.30;;;5.30;94.30;;;;;;5025827;28;20075;-49
2022/12/05 02:09:52;;;;;;;14.73;9.85;;;5.20;94.30;;;;;;5037437;28;20052;-50
2022/12/05 02:12:21;;;;;;;14.82;8.82;;;5.30;94.30;;;;;;5053360;28;20044;-47
2022/12/05 02:15:21;;;;;;;17.63;9.15;;;5.30;94.30;;;;;;5033851;28;20432;-46
2022/12/05 02:18:07;;;;;;;;;;;5.20;94.30;;;;;;5035117;28;20117;-47
2022/12/05 02:21:03;;;;;;;14.90;8.45;;;5.20;94.40;;;;;;5034597;28;19916;-48
2022/12/05 02:23:59;;;;;;;12.52;8.45;;;5.20;94.50;;;;;;5035473;28;20026;-50
2022/12/05 02:26:59;;;;;;;14.50;8.63;;;5.20;94.50;;;;;;5043618;28;20067;-50
2022/12/05 02:29:45;;;;;;;;;;;5.20;94.50;;;;;;5047748;28;20107;-50
2022/12/05 02:32:56;;;;;;;18.33;8.90;;;5.20;94.50;;;;;;5057527;28;19919;-53
2022/12/05 02:35:43;;;;;;;15.38;9.15;;;5.20;94.60;;;;;;5022489;28;20127;-49
2022/12/05 02:38:24;;;;;;;15.73;9.25;;;5.20;94.60;;;;;;5056682;28;20050;-49
2022/12/05 02:41:09;;;;;;;17.00;9.60;;;5.20;94.60;;;;;;5067674;28;20082;-54
2022/12/05 02:44:20;;;;;;;19.80;10.77;;;5.20;94.70;;;;;;5053999;28;20468;-52
2022/12/05 02:46:51;;;;;;;18.35;9.38;;;5.20;94.70;;;;;;5052640;28;20025;-54
2022/12/05 02:49:22;;;;;;;20.13;11.15;;;5.20;94.70;;;;;;5063965;28;20025;-50
2022/12/05 02:51:53;;;;;;;15.32;9.98;;;5.20;94.70;;;;;;5073938;28;20048;-48
2022/12/05 02:54:34;;;;;;;15.80;10.57;;;5.20;94.70;;;;;;5056264;28;20039;-53
2022/12/05 02:57:00;;;;;;;16.45;10.32;;;5.20;94.80;;;;;;5063883;28;20048;-50
2022/12/05 02:59:28;;;;;;;21.95;11.38;;;5.20;94.80;;;;;;5065390;28;20518;-52
2022/12/05 03:01:56;;;;;;;17.83;11.00;;;5.20;94.80;;;;;;5046626;28;20029;-51
2022/12/05 03:04:25;;;;;;;23.35;12.38;;;5.20;94.80;;;;;;5048406;28;20036;-53
2022/12/05 03:07:02;;;;;;;20.63;11.30;;;5.20;94.90;;;;;;5068948;28;20046;-52
2022/12/05 03:09:56;;;;;;;21.23;11.35;;;5.20;94.80;;;;;;5051595;28;20076;-47
2022/12/05 03:12:26;;;;;;;17.13;12.38;;;5.20;94.90;;;;;;5016293;28;20035;-47
2022/12/05 03:14:57;;;;;;;;;;;5.20;94.90;;;;;;5034693;28;20060;-49
2022/12/05 03:17:33;;;;;;;22.35;11.60;;;5.20;94.90;;;;;;5058299;28;19991;-49
2022/12/05 03:20:08;;;;;;;18.48;10.98;;;5.20;94.90;;;;;;5055878;28;20029;-48
2022/12/05 03:22:43;;;;;;;20.70;12.63;;;5.20;94.90;;;;;;5040533;28;20029;-52
2022/12/05 03:25:11;;;;;;;20.92;13.48;;;5.20;94.90;;;;;;5060223;28;20029;-49
2022/12/05 03:28:03;;;;;;;22.45;13.25;;;5.20;94.90;;;;;;5050152;28;20031;-50
2022/12/05 03:30:31;;;;;;;24.25;13.68;;;5.30;94.90;;;;;;5063102;28;20032;-51
2022/12/05 03:33:24;;;;;;;26.83;13.07;;;5.20;94.90;;;;;;5055713;28;20021;-51
2022/12/05 03:35:50;;;;;;;25.50;11.85;;;5.20;95.00;;;;;;5033093;28;20069;-48
2022/12/05 03:38:26;;;;;;;20.88;12.38;;;5.20;95.00;;;;;;5049831;28;20063;-51
2022/12/05 03:41:22;;;;;;;23.52;11.68;;;5.20;95.00;;;;;;5072913;28;20036;-51
2022/12/05 03:43:56;;;;;;;26.63;12.70;;;5.30;95.00;;;;;;5055508;28;20029;-49
2022/12/05 03:46:46;;;;;;;19.92;12.07;;;5.30;95.00;;;;;;5039190;28;20391;-53
2022/12/05 03:49:26;;;;;;;19.42;11.02;;;5.30;95.00;;;;;;5033822;28;20029;-54
2022/12/05 03:52:21;;;;;;;22.15;12.27;;;5.20;95.00;;;;;;5033531;28;20351;-52
2022/12/05 03:54:56;;;;;;;23.17;13.73;;;5.20;95.00;;;;;;5044142;28;20037;-54
2022/12/05 03:57:44;;;;;;;18.10;11.70;;;5.20;95.00;;;;;;5061638;28;20729;-49
2022/12/05 04:00:21;;;;;;;18.75;12.38;;;5.20;95.00;;;;;;5072996;28;20024;-52
2022/12/05 04:03:18;;;;;;;21.65;12.65;;;5.20;95.00;;;;;;5055712;28;20024;-53
2022/12/05 04:06:02;;;;;;;26.27;12.25;;;5.20;95.10;;;;;;5019019;28;20091;-52
2022/12/05 04:08:40;;;;;;;21.92;11.85;;;5.20;95.10;;;;;;5052832;28;20025;-56
2022/12/05 04:11:18;;;;;;;18.17;12.85;;;5.20;95.10;;;;;;5052659;28;20032;-57
2022/12/05 04:14:04;;;;;;;19.00;11.23;;;5.20;95.10;;;;;;5046559;28;20353;-56
2022/12/05 04:22:35;;;;;;;17.90;11.10;;;5.20;95.00;;;;;;5003058;28;20073;-53
2022/12/05 04:28:33;;;;;;;18.17;10.77;;;5.20;95.10;;;;;;5072860;28;20044;-55
2022/12/05 04:31:11;;;;;;;18.80;10.95;;;5.20;95.10;;;;;;5024850;28;20374;-54
2022/12/05 04:33:40;;;;;;;19.55;9.85;;;5.30;95.10;;;;;;5051827;28;20087;-55
2022/12/05 04:36:29;;;;;;;18.15;10.80;;;5.20;95.10;;;;;;5051487;28;20037;-52
2022/12/05 04:39:10;;;;;;;17.88;10.82;;;5.20;95.10;;;;;;5049414;28;20029;-55
2022/12/05 04:41:46;;;;;;;17.35;10.43;;;5.20;95.10;;;;;;5037896;28;20370;-54
2022/12/05 04:44:17;;;;;;;22.15;12.73;;;5.20;95.10;;;;;;5044696;28;20041;-53
2022/12/05 04:46:46;;;;;;;20.02;11.38;;;5.20;95.10;;;;;;5032690;28;20029;-51
2022/12/05 04:49:20;;;;;;;23.00;11.00;;;5.20;95.00;;;;;;5054776;28;20043;-52
2022/12/05 04:51:55;;;;;;;23.25;10.25;;;5.20;95.00;;;;;;5043079;28;20104;-48
2022/12/05 04:54:33;;;;;;;45.13;12.40;;;5.20;95.10;;;;;;5054094;28;20030;-50
2022/12/05 04:57:23;;;;;;;19.98;11.60;;;5.20;95.10;;;;;;5060085;28;20138;-54
2022/12/05 04:59:51;;;;;;;23.55;10.50;;;5.20;95.00;;;;;;5045147;28;20056;-54
2022/12/05 05:02:31;;;;;;;26.38;11.43;;;5.20;95.00;;;;;;5061385;28;20367;-54
2022/12/05 05:05:00;;;;;;;18.23;10.38;;;5.10;95.00;;;;;;5040528;28;20043;-53
2022/12/05 05:07:26;;;;;;;25.35;12.55;;;5.10;95.00;;;;;;5039484;28;20021;-53
2022/12/05 05:09:51;;;;;;;22.77;11.20;;;5.10;95.00;;;;;;5035311;28;20029;-54
2022/12/05 05:12:17;;;;;;;24.73;11.18;;;5.10;95.00;;;;;;5035140;28;20344;-50
2022/12/05 05:14:44;;;;;;;21.42;10.93;;;5.10;95.00;;;;;;5047184;28;20108;-53
2022/12/05 05:17:14;;;;;;;19.80;10.30;;;5.10;95.00;;;;;;5047033;28;20446;-52
2022/12/05 05:19:44;;;;;;;20.90;11.32;;;5.10;95.00;;;;;;5075540;28;20450;-53
2022/12/05 05:22:11;;;;;;;23.92;11.07;;;5.10;95.00;;;;;;5075385;28;20047;-52
2022/12/05 05:24:37;;;;;;;17.27;10.15;;;5.10;95.00;;;;;;5069879;28;20029;-50
2022/12/05 05:27:07;;;;;;;22.55;12.10;;;5.10;95.00;;;;;;5046707;28;20021;-54
2022/12/05 05:29:33;;;;;;;22.08;10.93;;;5.10;94.90;;;;;;5064778;28;20024;-53
2022/12/05 05:32:00;;;;;;;20.10;10.93;;;5.00;94.90;;;;;;5049052;28;20029;-54
2022/12/05 05:34:27;;;;;;;18.30;10.55;;;5.00;94.90;;;;;;5074027;28;20107;-53
2022/12/05 05:36:54;;;;;;;18.58;10.10;;;5.00;94.90;;;;;;5075377;28;20043;-54
2022/12/05 05:39:21;;;;;;;17.60;10.38;;;5.00;94.80;;;;;;5062339;28;20038;-48
2022/12/05 05:41:48;;;;;;;19.38;10.10;;;5.00;94.80;;;;;;5035314;28;20029;-55
2022/12/05 05:44:14;;;;;;;17.40;9.27;;;5.10;94.90;;;;;;5035318;28;20025;-50
2022/12/05 05:46:40;;;;;;;16.13;9.85;;;5.00;94.80;;;;;;5054573;28;20653;-49
2022/12/05 05:49:09;;;;;;;20.52;10.48;;;5.00;94.80;;;;;;5048466;28;20025;-52
2022/12/05 05:51:38;;;;;;;17.17;11.18;;;5.00;94.80;;;;;;5064726;28;20025;-55
2022/12/05 05:54:05;;;;;;;20.63;10.73;;;5.00;94.70;;;;;;5070955;28;20025;-49
2022/12/05 05:56:32;;;;;;;25.23;11.40;;;5.00;94.70;;;;;;5061547;28;20084;-53
2022/12/05 05:59:01;;;;;;;17.27;10.18;;;5.00;94.70;;;;;;5057287;28;20517;-50
2022/12/05 06:01:29;;;;;;;17.05;9.57;;;5.00;94.70;;;;;;5062104;28;20025;-52
2022/12/05 06:03:55;;;;;;;19.23;10.32;;;5.00;94.70;;;;;;5054407;28;20025;-51
2022/12/05 06:06:22;;;;;;;21.15;11.70;;;5.00;94.70;;;;;;5036882;28;20047;-54
2022/12/05 06:08:49;;;;;;;21.83;10.32;;;5.00;94.70;;;;;;5054759;28;20029;-54
2022/12/05 06:11:20;;;;;;;14.73;9.23;;;5.00;94.70;;;;;;5054660;28;20033;-50
2022/12/05 06:13:47;;;;;;;17.17;10.55;;;5.00;94.70;;;;;;5062725;28;20092;-49
2022/12/05 06:16:16;;;;;;;21.33;11.50;;;5.00;94.70;;;;;;5057081;28;20074;-54
2022/12/05 06:18:44;;;;;;;19.10;10.07;;;5.00;94.60;;;;;;5037299;28;20029;-54
2022/12/05 06:21:11;;;;;;;21.65;11.57;;;4.90;94.70;;;;;;5034741;28;20022;-55
2022/12/05 06:23:39;;;;;;;18.60;10.45;;;5.00;94.60;;;;;;5053251;28;20033;-55
2022/12/05 06:26:10;;;;;;;22.02;9.93;;;5.00;94.60;;;;;;5049583;28;20025;-49
2022/12/05 06:28:38;;;;;;;19.77;10.85;;;4.90;94.60;;;;;;5034180;28;20036;-53
2022/12/05 06:31:09;;;;;;;19.20;11.52;;;5.00;94.60;;;;;;5033250;28;20042;-55
2022/12/05 06:33:37;;;;;;;19.27;9.70;;;5.00;94.60;;;;;;5033919;28;20025;-54
2022/12/05 06:36:09;;;;;;;19.98;10.50;;;5.00;94.60;;;;;;5033439;28;20397;-55
2022/12/05 06:38:36;;;;;;;17.63;11.35;;;4.90;94.50;;;;;;5036303;28;20343;-51
2022/12/05 06:41:07;;;;;;;16.80;9.27;;;4.90;94.50;;;;;;5054073;28;20028;-56
2022/12/05 06:43:34;;;;;;;20.92;10.45;;;4.90;94.50;;;;;;5043195;28;20033;-52
2022/12/05 06:46:04;;;;;;;24.30;12.18;;;4.90;94.50;;;;;;5033532;28;20029;-53
2022/12/05 06:48:30;;;;;;;23.27;10.82;;;4.90;94.50;;;;;;5059987;28;20025;-52
2022/12/05 06:50:59;;;;;;;20.60;11.23;;;4.90;94.50;;;;;;5063619;28;20150;-53
2022/12/05 06:53:28;;;;;;;21.60;11.05;;;4.90;94.60;;;;;;5037005;28;20120;-52
2022/12/05 06:56:14;;;;;;;18.33;10.48;;;4.90;94.50;;;;;;5033587;28;20053;-54
2022/12/05 06:58:46;;;;;;;14.68;9.30;;;4.90;94.60;;;;;;5058043;28;20025;-55
2022/12/05 07:04:19;;;;;;;18.70;9.70;;;4.90;94.50;;;;;;5047199;28;20043;-55
2022/12/05 07:06:48;;;;;;;16.83;9.98;;;4.90;94.50;;;;;;5073488;28;20032;-53
2022/12/05 07:09:15;;;;;;;12.95;9.45;;;4.90;94.50;;;;;;5047573;28;20021;-53
2022/12/05 07:11:45;;;;;;;16.65;10.40;;;4.90;94.50;;;;;;5033602;28;20359;-52
2022/12/05 07:14:12;;;;;;;15.77;11.38;;;4.90;94.50;;;;;;5035597;28;20037;-55
2022/12/05 07:16:38;;;;;;;16.20;10.07;;;4.90;94.40;;;;;;5058626;28;20465;-54
2022/12/05 07:19:05;;;;;;;22.10;11.38;;;4.90;94.50;;;;;;5055234;28;20412;-52
2022/12/05 07:21:32;;;;;;;21.20;12.10;;;4.80;94.50;;;;;;5073066;28;20093;-55
2022/12/05 07:23:59;;;;;;;17.02;10.63;;;4.90;94.40;;;;;;5063900;28;20030;-53
2022/12/05 07:26:26;;;;;;;20.30;10.95;;;4.80;94.40;;;;;;5032348;28;20025;-55
2022/12/05 07:28:56;;;;;;;20.98;10.63;;;4.80;94.50;;;;;;5033643;28;20036;-51
2022/12/05 07:31:28;;;;;;;17.67;9.57;;;4.90;94.50;;;;;;5049865;28;20025;-55
2022/12/05 07:33:54;;;;;;;22.42;11.20;;;4.80;94.40;;;;;;5034776;28;20033;-53
2022/12/05 07:36:22;;;;;;;16.52;10.73;;;4.90;94.50;;;;;;5033363;28;20045;-53
2022/12/05 07:38:57;;;;;;;22.58;10.68;;;4.80;94.50;;;;;;5031238;28;20039;-53
2022/12/05 07:41:42;;;;;;;18.90;10.23;;;4.80;94.40;;;;;;5032314;28;20138;-54
2022/12/05 07:44:10;;;;;;;20.83;9.93;;;4.80;94.50;;;;;;5032025;28;20033;-51
2022/12/05 07:46:40;;;;;;;21.20;11.07;;;4.80;94.40;;;;;;5035318;28;20068;-54
2022/12/05 07:49:09;;;;;;;15.93;10.80;;;4.90;94.40;;;;;;5053165;28;20082;-54
2022/12/05 07:51:36;;;;;;;22.45;11.80;;;4.90;94.40;;;;;;5053070;28;20052;-51
2022/12/05 07:54:03;;;;;;;21.23;11.63;;;4.90;94.40;;;;;;5051830;28;20041;-53
2022/12/05 07:56:30;;;;;;;17.23;11.40;;;4.90;94.40;;;;;;5041493;28;20133;-54
2022/12/05 07:58:57;;;;;;;16.92;9.68;;;4.90;94.30;;;;;;4999151;28;20096;-51
2022/12/05 08:01:27;;;;;;;22.85;12.35;;;4.90;94.30;;;;;;5013295;28;20029;-54
2022/12/05 08:03:57;;;;;;;21.48;10.98;;;4.90;94.30;;;;;;5017680;28;20094;-53
2022/12/05 08:06:26;;;;;;;15.35;9.27;;;4.80;94.30;;;;;;5033089;28;20021;-52
2022/12/05 08:08:53;;;;;;;16.50;9.73;;;4.80;94.30;;;;;;5032892;28;20494;-54
2022/12/05 08:11:24;;;;;;;16.95;10.18;;;4.90;94.30;;;;;;5020610;28;20040;-49
2022/12/05 08:13:55;;;;;;;19.73;12.27;;;4.90;94.30;;;;;;5013400;28;20026;-54
2022/12/05 08:16:26;;;;;;;24.88;11.10;;;4.90;94.30;;;;;;5013103;28;20168;-48
2022/12/05 08:18:58;;;;;;;20.58;10.82;;;4.90;94.30;;;;;;5011038;28;20042;-53
2022/12/05 08:21:25;;;;;;;18.88;11.18;;;4.90;94.20;;;;;;5020104;28;20049;-49
2022/12/05 08:23:53;;;;;;;21.17;12.07;;;4.90;94.20;;;;;;5012753;28;20083;-51
2022/12/05 08:26:23;;;;;;;27.75;12.35;;;4.90;94.20;;;;;;5012761;28;20115;-48
2022/12/05 08:29:03;;;;;;;19.48;11.32;;;4.90;94.20;;;;;;5013057;28;20076;-51
2022/12/05 08:31:31;;;;;;;;;;;4.90;94.10;;;;;;5013514;28;20053;-53
2022/12/05 08:33:59;;;;;;;20.20;11.20;;;4.90;94.10;;;;;;4995366;28;19916;-53
2022/12/05 08:36:28;;;;;;;18.50;10.32;;;4.90;94.00;;;;;;5012738;28;20033;-50
2022/12/05 08:38:59;;;;;;;24.42;11.60;;;4.90;94.00;;;;;;5005838;28;20037;-48
2022/12/05 08:41:28;;;;;;;16.90;11.55;;;4.90;93.90;;;;;;5013740;28;20030;-49
2022/12/05 08:43:57;;;;;;;17.23;10.38;;;4.90;93.90;;;;;;5015297;28;20188;-50
2022/12/05 08:46:27;;;;;;;20.65;11.68;;;4.90;93.90;;;;;;5015655;28;20341;-49
2022/12/05 08:48:56;;;;;;;17.67;10.13;;;4.90;93.80;;;;;;5016769;28;20390;-53
2022/12/05 08:51:23;;;;;;;;;;;4.90;93.80;;;;;;5016935;28;20451;-50
2022/12/05 08:53:50;;;;;;;19.55;10.15;;;4.90;93.80;;;;;;5030504;28;20243;-50
2022/12/05 08:56:17;;;;;;;21.98;10.00;;;4.90;93.80;;;;;;5040911;28;20136;-52
2022/12/05 08:58:44;;;;;;;16.13;9.18;;;4.90;93.90;;;;;;5048712;28;20040;-49
2022/12/05 09:01:31;;;;;;;12.40;8.65;;;4.90;93.90;;;;;;5041719;28;20037;-48
2022/12/05 09:04:00;;;;;;;19.05;9.65;;;5.00;93.90;;;;;;5046540;28;20022;-50
2022/12/05 09:06:27;;;;;;;13.00;8.25;;;5.00;93.90;;;;;;5054724;28;20025;-50
2022/12/05 09:08:58;;;;;;;14.38;9.65;;;4.90;93.90;;;;;;5064480;28;20493;-51
2022/12/05 09:11:27;;;;;;;16.58;8.43;;;4.90;93.90;;;;;;5051074;28;20061;-50
2022/12/05 09:13:56;;;;;;;15.57;9.38;;;5.00;93.90;;;;;;5069713;28;20032;-52
2022/12/05 09:16:28;;;;;;;18.02;9.13;;;5.00;93.90;;;;;;5076138;28;20024;-52
2022/12/05 09:18:56;;;;;;;18.42;8.95;;;4.90;94.00;;;;;;5046777;28;20037;-52
2022/12/05 09:21:25;;;;;;;15.85;8.82;;;5.00;94.00;;;;;;5055222;28;20454;-48
2022/12/05 09:23:53;;;;;;;22.02;8.35;;;5.00;94.10;;;;;;5035880;28;20373;-48
2022/12/05 09:26:22;;;;;;;16.05;8.75;;;5.00;94.00;;;;;;5036368;28;20025;-52
2022/12/05 09:28:50;;;;;;;18.85;10.25;;;5.00;94.10;;;;;;5051541;28;20466;-51
2022/12/05 09:31:20;;;;;;;18.42;9.15;;;4.90;94.00;;;;;;5038052;28;20449;-52
2022/12/05 09:33:50;;;;;;;19.65;9.25;;;4.90;94.10;;;;;;5051783;28;20033;-52
2022/12/05 09:36:20;;;;;;;16.13;9.00;;;5.00;94.00;;;;;;5038223;28;20033;-51
2022/12/05 09:38:47;;;;;;;19.42;8.18;;;4.90;94.00;;;;;;5050410;28;20112;-54
2022/12/05 09:44:49;;;;;;;18.90;8.77;;;5.00;93.90;;;;;;5055035;28;20125;-53
2022/12/05 09:47:37;;;;;;;14.65;9.32;;;5.00;93.90;;;;;;5047249;28;20075;-56
2022/12/05 09:50:15;;;;;;;14.63;8.13;;;5.00;93.90;;;;;;5035641;28;20500;-57
2022/12/05 09:53:20;;;;;;;15.07;8.45;;;5.00;94.00;;;;;;5050549;28;20119;-58
2022/12/05 09:56:07;;;;;;;11.32;7.43;;;5.00;94.00;;;;;;5035017;28;20139;-56
2022/12/05 09:58:48;;;;;;;13.38;6.78;;;5.00;94.00;;;;;;5047113;28;20032;-59
2022/12/05 10:01:37;;;;;;;15.07;7.72;;;5.00;94.00;;;;;;5053533;28;20033;-59
2022/12/05 10:04:21;;;;;;;15.07;8.43;;;5.00;94.00;;;;;;5031640;28;20196;-59
2022/12/05 10:07:06;;;;;;;18.38;10.13;;;5.00;94.00;;;;;;5043985;28;20103;-58
2022/12/05 10:09:56;;;;;;;15.20;7.07;;;5.00;94.00;;;;;;5047181;28;20415;-61
2022/12/05 10:12:41;;;;;;;21.40;7.63;;;5.00;94.10;;;;;;5036190;28;20037;-60
2022/12/05 10:15:47;;;;;;;15.05;8.32;;;5.00;94.00;;;;;;5054636;28;20048;-60
2022/12/05 10:18:30;;;;;;;17.65;7.25;;;5.00;94.10;;;;;;5051797;28;20476;-60
2022/12/05 10:21:08;;;;;;;18.85;6.50;;;5.00;94.00;;;;;;5052151;28;20473;-60
2022/12/05 10:23:55;;;;;;;13.95;6.65;;;5.00;93.90;;;;;;5051396;28;20029;-59
2022/12/05 10:26:36;;;;;;;11.95;6.78;;;5.00;94.00;;;;;;5034293;28;20442;-57
2022/12/05 10:29:36;;;;;;;14.45;6.82;;;5.10;94.00;;;;;;5047374;28;20575;-59
2022/12/05 10:32:14;;;;;;;12.80;6.05;;;5.10;94.00;;;;;;5044102;28;20035;-60
2022/12/05 10:34:42;;;;;;;11.93;5.85;;;5.00;94.00;;;;;;5048383;28;20037;-61
2022/12/05 10:37:23;;;;;;;14.20;7.22;;;5.00;94.00;;;;;;5054372;28;20087;-61
2022/12/05 10:39:51;;;;;;;18.13;6.35;;;5.00;94.10;;;;;;5036198;28;20704;-61
2022/12/05 10:42:24;;;;;;;13.60;6.28;;;5.10;94.10;;;;;;5054052;28;20033;-61
2022/12/05 10:45:03;;;;;;;20.00;7.03;;;5.10;94.00;;;;;;5051234;28;20824;-62
2022/12/05 10:47:34;;;;;;;11.13;6.03;;;5.00;94.10;;;;;;5034318;28;20021;-62
2022/12/05 10:50:16;;;;;;;12.35;6.20;;;5.00;94.10;;;;;;5034312;28;20070;-62
2022/12/05 10:52:42;;;;;;;15.57;5.13;;;5.00;94.10;;;;;;5016387;28;20041;-60
2022/12/05 10:55:15;;;;;;;11.43;4.55;;;5.10;94.10;;;;;;5046455;28;20038;-60
2022/12/05 10:57:46;;;;;;;10.95;4.65;;;5.10;94.10;;;;;;5035266;28;20057;-59
2022/12/05 11:00:17;;;;;;;10.27;4.75;;;5.00;94.10;;;;;;5031996;28;20086;-57
2022/12/05 11:02:47;;;;;;;8.02;5.32;;;5.10;94.10;;;;;;5042142;28;20033;-56
2022/12/05 11:05:13;;;;;;;13.77;5.18;;;5.00;94.00;;;;;;5046626;28;20032;-51
2022/12/05 11:07:58;;;;;;;12.48;4.68;;;5.10;94.00;;;;;;5051461;28;20025;-58
2022/12/05 11:10:43;;;;;;;13.77;6.75;;;5.00;94.00;;;;;;5033816;28;20489;-61
2022/12/05 11:13:24;;;;;;;7.70;5.07;;;5.00;94.00;;;;;;5036316;28;20143;-59
2022/12/05 11:15:51;;;;;;;11.20;5.07;;;5.00;94.00;;;;;;5048693;28;20492;-59
2022/12/05 11:18:32;;;;;;;11.77;5.00;;;5.00;94.00;;;;;;5033610;28;20032;-58
2022/12/05 11:21:13;;;;;;;13.73;5.80;;;5.00;94.00;;;;;;5044322;28;20029;-57
2022/12/05 11:23:40;;;;;;;14.77;4.93;;;5.00;94.00;;;;;;5044202;28;20036;-58
2022/12/05 11:26:27;;;;;;;8.48;4.68;;;5.00;94.00;;;;;;5043748;28;20083;-58
2022/12/05 11:28:54;;;;;;;12.73;5.72;;;5.00;94.10;;;;;;5049519;28;20029;-57
2022/12/05 11:31:28;;;;;;;15.68;5.55;;;5.00;94.10;;;;;;5051597;28;20430;-57
2022/12/05 11:34:16;;;;;;;9.57;5.55;;;5.00;94.20;;;;;;5051254;28;20082;-56
2022/12/05 11:36:49;;;;;;;15.40;5.80;;;5.00;94.20;;;;;;5052985;28;20021;-56
2022/12/05 11:39:16;;;;;;;10.27;5.05;;;5.00;94.20;;;;;;5035614;28;20025;-51
2022/12/05 11:42:00;;;;;;;13.98;6.57;;;5.00;94.30;;;;;;5031057;28;20033;-56
2022/12/05 11:44:29;;;;;;;13.60;5.63;;;5.00;94.30;;;;;;5053980;28;20438;-51
2022/12/05 11:47:10;;;;;;;9.80;5.75;;;4.90;94.40;;;;;;5032169;28;20079;-52
2022/12/05 11:50:06;;;;;;;11.95;5.47;;;4.90;94.40;;;;;;5033293;28;20037;-54
2022/12/05 11:53:14;;;;;;;15.55;6.13;;;5.00;94.50;;;;;;5042638;28;20033;-55
2022/12/05 11:55:49;;;;;;;10.55;5.32;;;5.00;94.50;;;;;;4972297;28;20142;-55
2022/12/05 11:58:36;;;;;;;11.35;5.63;;;5.00;94.50;;;;;;5025415;28;20438;-53
2022/12/05 12:01:32;;;;;;;11.15;5.25;;;4.90;94.60;;;;;;5012229;28;20042;-55
2022/12/05 12:04:31;;;;;;;12.63;5.93;;;4.90;94.60;;;;;;4996411;28;20034;-54
2022/12/05 12:07:35;;;;;;;14.35;6.40;;;4.90;94.70;;;;;;5013367;28;20065;-50
2022/12/05 12:10:19;;;;;;;10.27;5.38;;;4.90;94.70;;;;;;5013218;28;20026;-55
2022/12/05 12:13:09;;;;;;;13.05;6.43;;;4.90;94.80;;;;;;5022048;28;20041;-51
2022/12/05 12:16:05;;;;;;;13.07;5.68;;;5.00;94.80;;;;;;5033093;28;20108;-53
2022/12/05 12:19:08;;;;;;;12.10;6.53;;;4.90;94.80;;;;;;5035678;28;20045;-49
2022/12/05 12:22:05;;;;;;;14.52;7.03;;;4.90;94.90;;;;;;5021976;28;20022;-52
2022/12/05 12:25:10;;;;;;;12.02;6.22;;;4.90;94.90;;;;;;5035383;28;20037;-52
2022/12/05 12:27:48;;;;;;;10.13;5.72;;;4.90;94.90;;;;;;5023655;28;20053;-48
2022/12/05 12:30:19;;;;;;;18.33;5.78;;;4.90;94.80;;;;;;5018189;28;20044;-55
2022/12/05 12:33:15;;;;;;;14.85;6.60;;;4.90;94.90;;;;;;5015218;28;20419;-49
2022/12/05 12:35:59;;;;;;;15.38;5.82;;;4.90;94.90;;;;;;5015784;28;20037;-53
2022/12/05 12:38:43;;;;;;;12.65;6.18;;;4.90;94.90;;;;;;5016903;28;20396;-49
2022/12/05 12:41:37;;;;;;;16.20;7.72;;;4.90;94.90;;;;;;5027496;28;20033;-51
2022/12/05 12:44:40;;;;;;;15.35;5.72;;;4.90;94.80;;;;;;5033603;28;20104;-51
2022/12/05 12:47:46;;;;;;;13.88;6.18;;;4.90;94.80;;;;;;5018325;28;20033;-54
2022/12/05 12:50:25;;;;;;;12.98;5.30;;;4.90;94.80;;;;;;5034313;28;20100;-48
2022/12/05 12:53:28;;;;;;;10.18;5.85;;;4.90;94.80;;;;;;5036036;28;20455;-51
2022/12/05 12:56:05;;;;;;;12.75;6.30;;;5.00;94.80;;;;;;5025511;28;20099;-49
2022/12/05 12:59:02;;;;;;;12.57;6.22;;;4.90;94.80;;;;;;5044845;28;20037;-52
2022/12/05 13:01:46;;;;;;;13.40;6.25;;;4.90;94.80;;;;;;5038971;28;20040;-50
2022/12/05 13:04:22;;;;;;;14.73;6.40;;;4.90;94.80;;;;;;5053121;28;20033;-50
2022/12/05 13:07:04;;;;;;;11.02;6.93;;;4.90;94.80;;;;;;5054960;28;20082;-52
2022/12/05 13:09:54;;;;;;;15.60;6.88;;;4.90;94.70;;;;;;5037692;28;20044;-50
2022/12/05 13:12:30;;;;;;;14.85;7.35;;;4.90;94.70;;;;;;5038392;28;20362;-49
2022/12/05 13:15:05;;;;;;;17.95;7.57;;;4.90;94.70;;;;;;5027177;28;20163;-50
2022/12/05 13:17:32;;;;;;;13.95;7.32;;;4.90;94.70;;;;;;5052581;28;20025;-50
2022/12/05 13:20:00;;;;;;;13.98;8.23;;;4.90;94.70;;;;;;5052205;28;20461;-49
2022/12/05 13:22:28;;;;;;;16.55;8.40;;;4.90;94.60;;;;;;5034926;28;20030;-49
2022/12/05 13:24:53;;;;;;;17.52;8.65;;;4.90;94.60;;;;;;5019049;28;20025;-51
2022/12/05 13:27:29;;;;;;;18.52;8.68;;;4.90;94.60;;;;;;5049460;28;20036;-49
2022/12/05 13:30:17;;;;;;;15.52;8.60;;;4.90;94.60;;;;;;5054494;28;20033;-50
2022/12/05 13:32:44;;;;;;;19.65;8.35;;;4.90;94.60;;;;;;5035554;28;20033;-52
2022/12/05 13:43:48;;;;;;;14.88;8.57;;;4.90;94.60;;;;;;5052562;28;20090;-53
2022/12/05 13:46:33;;;;;;;18.13;8.15;;;4.80;94.70;;;;;;5049896;28;20053;-53
2022/12/05 13:49:51;;;;;;;17.13;8.90;;;4.90;94.70;;;;;;5038513;28;20017;-55